sensor_id;sensor_type;location;lat;lon;timestamp;P1;P2;P0
37775;PMS5003;23614;33.774;130.514;2023-05-07T00:01:19;1;0;
37775;PMS5003;23614;33.774;130.514;2023-05-07T00:03:46;0;0;
37775;PMS5003;23614;33.774;130.514;2023-05-07T00:06:11;0;0;
37775;PMS5003;23614;33.774;130.514;2023-05-07T00:08:37;0;0;
37775;PMS5003;23614;33.774;130.514;2023-05-07T00:11:03;0;0;
37775;PMS5003;23614;33.774;130.514;2023-05-07T00:13:30;0;0;
37775;PMS5003;23614;33.774;130.514;2023-05-07T00:15:55;0;0;
37775;PMS5003;23614;33.774;130.514;2023-05-07T00:18:21;0;0;
37775;PMS5003;23614;33.774;130.514;2023-05-07T00:20:47;0;0;
37775;PMS5003;23614;33.774;130.514;2023-05-07T00:23:13;1;0;
37775;PMS5003;23614;33.774;130.514;2023-05-07T00:25:39;0;0;
37775;PMS5003;23614;33.774;130.514;2023-05-07T00:28:05;2;1;
37775;PMS5003;23614;33.774;130.514;2023-05-07T00:30:31;0;0;
37775;PMS5003;23614;33.774;130.514;2023-05-07T00:32:57;1;1;
37775;PMS5003;23614;33.774;130.514;2023-05-07T00:35:23;0;0;
37775;PMS5003;23614;33.774;130.514;2023-05-07T00:37:49;0;0;
37775;PMS5003;23614;33.774;130.514;2023-05-07T00:40:15;1;1;
37775;PMS5003;23614;33.774;130.514;2023-05-07T00:42:41;1;1;
37775;PMS5003;23614;33.774;130.514;2023-05-07T00:45:07;2;1;
37775;PMS5003;23614;33.774;130.514;2023-05-07T00:47:33;3;3;
37775;PMS5003;23614;33.774;130.514;2023-05-07T00:49:59;0;0;
37775;PMS5003;23614;33.774;130.514;2023-05-07T00:52:25;1;1;
37775;PMS5003;23614;33.774;130.514;2023-05-07T00:54:51;2;1;
37775;PMS5003;23614;33.774;130.514;2023-05-07T00:57:18;1;0;
37775;PMS5003;23614;33.774;130.514;2023-05-07T00:59:44;1;1;
37775;PMS5003;23614;33.774;130.514;2023-05-07T01:02:09;1;1;
37775;PMS5003;23614;33.774;130.514;2023-05-07T01:04:35;2;2;
37775;PMS5003;23614;33.774;130.514;2023-05-07T01:07:01;0;0;
37775;PMS5003;23614;33.774;130.514;2023-05-07T01:09:27;2;2;
37775;PMS5003;23614;33.774;130.514;2023-05-07T01:11:54;2;1;
37775;PMS5003;23614;33.774;130.514;2023-05-07T01:14:19;3;2;
37775;PMS5003;23614;33.774;130.514;2023-05-07T01:16:45;2;2;
37775;PMS5003;23614;33.774;130.514;2023-05-07T01:19:11;1;1;
37775;PMS5003;23614;33.774;130.514;2023-05-07T01:21:37;4;3;
37775;PMS5003;23614;33.774;130.514;2023-05-07T01:24:03;2;2;
37775;PMS5003;23614;33.774;130.514;2023-05-07T01:26:30;2;2;
37775;PMS5003;23614;33.774;130.514;2023-05-07T01:28:55;4;4;
37775;PMS5003;23614;33.774;130.514;2023-05-07T01:31:21;3;3;
37775;PMS5003;23614;33.774;130.514;2023-05-07T01:33:47;3;2;
37775;PMS5003;23614;33.774;130.514;2023-05-07T01:36:13;6;5;
37775;PMS5003;23614;33.774;130.514;2023-05-07T01:38:39;3;3;
37775;PMS5003;23614;33.774;130.514;2023-05-07T01:41:05;4;3;
37775;PMS5003;23614;33.774;130.514;2023-05-07T01:43:31;4;3;
37775;PMS5003;23614;33.774;130.514;2023-05-07T01:45:57;4;3;
37775;PMS5003;23614;33.774;130.514;2023-05-07T01:48:23;4;3;
37775;PMS5003;23614;33.774;130.514;2023-05-07T01:50:49;3;3;
37775;PMS5003;23614;33.774;130.514;2023-05-07T01:53:15;3;2;
37775;PMS5003;23614;33.774;130.514;2023-05-07T01:55:41;2;2;
37775;PMS5003;23614;33.774;130.514;2023-05-07T01:58:07;3;3;
37775;PMS5003;23614;33.774;130.514;2023-05-07T02:00:33;2;1;
37775;PMS5003;23614;33.774;130.514;2023-05-07T02:02:59;3;2;
37775;PMS5003;23614;33.774;130.514;2023-05-07T02:05:26;1;1;
37775;PMS5003;23614;33.774;130.514;2023-05-07T02:07:51;2;1;
37775;PMS5003;23614;33.774;130.514;2023-05-07T02:10:18;1;1;
37775;PMS5003;23614;33.774;130.514;2023-05-07T02:12:44;2;2;
37775;PMS5003;23614;33.774;130.514;2023-05-07T02:15:10;1;1;
37775;PMS5003;23614;33.774;130.514;2023-05-07T02:17:38;2;2;
37775;PMS5003;23614;33.774;130.514;2023-05-07T02:20:02;2;2;
37775;PMS5003;23614;33.774;130.514;2023-05-07T02:22:27;1;1;
37775;PMS5003;23614;33.774;130.514;2023-05-07T02:24:53;1;1;
37775;PMS5003;23614;33.774;130.514;2023-05-07T02:27:19;1;1;
37775;PMS5003;23614;33.774;130.514;2023-05-07T02:29:45;2;1;
37775;PMS5003;23614;33.774;130.514;2023-05-07T02:32:11;1;1;
37775;PMS5003;23614;33.774;130.514;2023-05-07T02:34:37;1;1;
37775;PMS5003;23614;33.774;130.514;2023-05-07T02:37:03;1;1;
37775;PMS5003;23614;33.774;130.514;2023-05-07T02:39:29;1;1;
37775;PMS5003;23614;33.774;130.514;2023-05-07T02:41:55;1;1;
37775;PMS5003;23614;33.774;130.514;2023-05-07T02:44:21;1;1;
37775;PMS5003;23614;33.774;130.514;2023-05-07T02:46:47;3;2;
37775;PMS5003;23614;33.774;130.514;2023-05-07T02:49:13;1;1;
37775;PMS5003;23614;33.774;130.514;2023-05-07T02:51:39;0;0;
37775;PMS5003;23614;33.774;130.514;2023-05-07T02:54:05;1;1;
37775;PMS5003;23614;33.774;130.514;2023-05-07T02:56:31;1;1;
37775;PMS5003;23614;33.774;130.514;2023-05-07T02:58:57;1;1;
37775;PMS5003;23614;33.774;130.514;2023-05-07T03:01:23;3;2;
37775;PMS5003;23614;33.774;130.514;2023-05-07T03:03:49;1;1;
37775;PMS5003;23614;33.774;130.514;2023-05-07T03:06:16;1;0;
37775;PMS5003;23614;33.774;130.514;2023-05-07T03:08:41;0;0;
37775;PMS5003;23614;33.774;130.514;2023-05-07T03:11:08;1;1;
37775;PMS5003;23614;33.774;130.514;2023-05-07T03:13:33;0;0;
37775;PMS5003;23614;33.774;130.514;2023-05-07T03:15:59;1;1;
37775;PMS5003;23614;33.774;130.514;2023-05-07T03:18:25;0;0;
37775;PMS5003;23614;33.774;130.514;2023-05-07T03:20:52;1;1;
37775;PMS5003;23614;33.774;130.514;2023-05-07T03:23:17;1;1;
37775;PMS5003;23614;33.774;130.514;2023-05-07T03:25:43;1;1;
37775;PMS5003;23614;33.774;130.514;2023-05-07T03:28:09;2;1;
37775;PMS5003;23614;33.774;130.514;2023-05-07T03:30:35;1;1;
37775;PMS5003;23614;33.774;130.514;2023-05-07T03:33:01;2;2;
37775;PMS5003;23614;33.774;130.514;2023-05-07T03:35:27;1;1;
37775;PMS5003;23614;33.774;130.514;2023-05-07T03:37:53;1;1;
37775;PMS5003;23614;33.774;130.514;2023-05-07T03:40:19;1;1;
37775;PMS5003;23614;33.774;130.514;2023-05-07T03:42:45;2;2;
37775;PMS5003;23614;33.774;130.514;2023-05-07T03:45:11;2;2;
37775;PMS5003;23614;33.774;130.514;2023-05-07T03:47:37;1;1;
37775;PMS5003;23614;33.774;130.514;2023-05-07T03:50:03;2;2;
37775;PMS5003;23614;33.774;130.514;2023-05-07T03:52:29;1;1;
37775;PMS5003;23614;33.774;130.514;2023-05-07T03:54:55;1;1;
37775;PMS5003;23614;33.774;130.514;2023-05-07T03:57:21;2;2;
37775;PMS5003;23614;33.774;130.514;2023-05-07T03:59:47;1;1;
37775;PMS5003;23614;33.774;130.514;2023-05-07T04:02:13;1;0;
37775;PMS5003;23614;33.774;130.514;2023-05-07T04:04:39;0;0;
37775;PMS5003;23614;33.774;130.514;2023-05-07T04:07:06;0;0;
37775;PMS5003;23614;33.774;130.514;2023-05-07T04:09:31;0;0;
37775;PMS5003;23614;33.774;130.514;2023-05-07T04:11:57;1;1;
37775;PMS5003;23614;33.774;130.514;2023-05-07T04:14:24;0;0;
37775;PMS5003;23614;33.774;130.514;2023-05-07T04:16:50;0;0;
37775;PMS5003;23614;33.774;130.514;2023-05-07T04:19:15;0;0;
37775;PMS5003;23614;33.774;130.514;2023-05-07T04:21:42;0;0;
37775;PMS5003;23614;33.774;130.514;2023-05-07T04:24:07;0;0;
37775;PMS5003;23614;33.774;130.514;2023-05-07T04:26:33;0;0;
37775;PMS5003;23614;33.774;130.514;2023-05-07T04:29:00;0;0;
37775;PMS5003;23614;33.774;130.514;2023-05-07T04:31:25;0;0;
37775;PMS5003;23614;33.774;130.514;2023-05-07T04:33:51;0;0;
37775;PMS5003;23614;33.774;130.514;2023-05-07T04:36:17;0;0;
37775;PMS5003;23614;33.774;130.514;2023-05-07T04:38:43;1;0;
37775;PMS5003;23614;33.774;130.514;2023-05-07T04:41:09;0;0;
37775;PMS5003;23614;33.774;130.514;2023-05-07T04:43:35;0;0;
37775;PMS5003;23614;33.774;130.514;2023-05-07T04:46:01;0;0;
37775;PMS5003;23614;33.774;130.514;2023-05-07T04:48:27;0;0;
37775;PMS5003;23614;33.774;130.514;2023-05-07T04:50:53;0;0;
37775;PMS5003;23614;33.774;130.514;2023-05-07T04:53:19;0;0;
37775;PMS5003;23614;33.774;130.514;2023-05-07T04:55:45;0;0;
37775;PMS5003;23614;33.774;130.514;2023-05-07T04:58:11;0;0;
37775;PMS5003;23614;33.774;130.514;2023-05-07T05:00:37;0;0;
37775;PMS5003;23614;33.774;130.514;2023-05-07T05:03:03;0;0;
37775;PMS5003;23614;33.774;130.514;2023-05-07T05:05:29;0;0;
37775;PMS5003;23614;33.774;130.514;2023-05-07T05:07:55;0;0;
37775;PMS5003;23614;33.774;130.514;2023-05-07T05:10:21;0;0;
37775;PMS5003;23614;33.774;130.514;2023-05-07T05:12:47;0;0;
37775;PMS5003;23614;33.774;130.514;2023-05-07T05:15:14;1;0;
37775;PMS5003;23614;33.774;130.514;2023-05-07T05:17:39;0;0;
37775;PMS5003;23614;33.774;130.514;2023-05-07T05:20:06;2;1;
37775;PMS5003;23614;33.774;130.514;2023-05-07T05:22:32;0;0;
37775;PMS5003;23614;33.774;130.514;2023-05-07T05:24:57;1;1;
37775;PMS5003;23614;33.774;130.514;2023-05-07T05:27:23;1;0;
37775;PMS5003;23614;33.774;130.514;2023-05-07T05:29:50;1;1;
37775;PMS5003;23614;33.774;130.514;2023-05-07T05:32:15;0;0;
37775;PMS5003;23614;33.774;130.514;2023-05-07T05:34:42;1;1;
37775;PMS5003;23614;33.774;130.514;2023-05-07T05:37:07;0;0;
37775;PMS5003;23614;33.774;130.514;2023-05-07T05:39:33;1;1;
37775;PMS5003;23614;33.774;130.514;2023-05-07T05:41:59;3;3;
37775;PMS5003;23614;33.774;130.514;2023-05-07T05:44:25;5;4;
37775;PMS5003;23614;33.774;130.514;2023-05-07T05:46:51;4;3;
37775;PMS5003;23614;33.774;130.514;2023-05-07T05:49:17;4;3;
37775;PMS5003;23614;33.774;130.514;2023-05-07T05:51:43;5;5;
37775;PMS5003;23614;33.774;130.514;2023-05-07T05:54:09;4;4;
37775;PMS5003;23614;33.774;130.514;2023-05-07T05:56:36;6;4;
37775;PMS5003;23614;33.774;130.514;2023-05-07T05:59:01;5;4;
37775;PMS5003;23614;33.774;130.514;2023-05-07T06:01:27;5;5;
37775;PMS5003;23614;33.774;130.514;2023-05-07T06:03:53;8;5;
37775;PMS5003;23614;33.774;130.514;2023-05-07T06:06:19;8;7;
37775;PMS5003;23614;33.774;130.514;2023-05-07T06:08:46;8;6;
37775;PMS5003;23614;33.774;130.514;2023-05-07T06:11:11;10;6;
37775;PMS5003;23614;33.774;130.514;2023-05-07T06:13:37;4;4;
37775;PMS5003;23614;33.774;130.514;2023-05-07T06:16:04;6;5;
37775;PMS5003;23614;33.774;130.514;2023-05-07T06:18:29;6;6;
37775;PMS5003;23614;33.774;130.514;2023-05-07T06:20:56;5;5;
37775;PMS5003;23614;33.774;130.514;2023-05-07T06:23:21;6;6;
37775;PMS5003;23614;33.774;130.514;2023-05-07T06:25:48;4;4;
37775;PMS5003;23614;33.774;130.514;2023-05-07T06:28:14;5;4;
37775;PMS5003;23614;33.774;130.514;2023-05-07T06:30:39;6;5;
37775;PMS5003;23614;33.774;130.514;2023-05-07T06:33:05;5;3;
37775;PMS5003;23614;33.774;130.514;2023-05-07T06:35:31;4;3;
37775;PMS5003;23614;33.774;130.514;2023-05-07T06:37:57;5;4;
37775;PMS5003;23614;33.774;130.514;2023-05-07T06:40:23;6;5;
37775;PMS5003;23614;33.774;130.514;2023-05-07T06:42:49;4;3;
37775;PMS5003;23614;33.774;130.514;2023-05-07T06:45:15;5;5;
37775;PMS5003;23614;33.774;130.514;2023-05-07T06:47:41;3;3;
37775;PMS5003;23614;33.774;130.514;2023-05-07T06:50:08;4;3;
37775;PMS5003;23614;33.774;130.514;2023-05-07T06:52:33;2;2;
37775;PMS5003;23614;33.774;130.514;2023-05-07T06:54:59;4;3;
37775;PMS5003;23614;33.774;130.514;2023-05-07T06:57:25;2;2;
37775;PMS5003;23614;33.774;130.514;2023-05-07T06:59:51;3;3;
37775;PMS5003;23614;33.774;130.514;2023-05-07T07:02:17;6;3;
37775;PMS5003;23614;33.774;130.514;2023-05-07T07:04:43;2;2;
37775;PMS5003;23614;33.774;130.514;2023-05-07T07:07:09;3;3;
37775;PMS5003;23614;33.774;130.514;2023-05-07T07:09:36;4;3;
37775;PMS5003;23614;33.774;130.514;2023-05-07T07:12:01;3;3;
37775;PMS5003;23614;33.774;130.514;2023-05-07T07:14:27;6;6;
37775;PMS5003;23614;33.774;130.514;2023-05-07T07:16:53;5;5;
37775;PMS5003;23614;33.774;130.514;2023-05-07T07:19:19;6;4;
37775;PMS5003;23614;33.774;130.514;2023-05-07T07:21:46;4;3;
37775;PMS5003;23614;33.774;130.514;2023-05-07T07:24:13;4;4;
37775;PMS5003;23614;33.774;130.514;2023-05-07T07:26:37;5;4;
37775;PMS5003;23614;33.774;130.514;2023-05-07T07:29:03;4;3;
37775;PMS5003;23614;33.774;130.514;2023-05-07T07:31:29;2;2;
37775;PMS5003;23614;33.774;130.514;2023-05-07T07:33:55;6;5;
37775;PMS5003;23614;33.774;130.514;2023-05-07T07:36:21;2;2;
37775;PMS5003;23614;33.774;130.514;2023-05-07T07:38:47;5;3;
37775;PMS5003;23614;33.774;130.514;2023-05-07T07:41:13;3;3;
37775;PMS5003;23614;33.774;130.514;2023-05-07T07:43:39;2;2;
37775;PMS5003;23614;33.774;130.514;2023-05-07T07:46:05;5;3;
37775;PMS5003;23614;33.774;130.514;2023-05-07T07:48:31;4;4;
37775;PMS5003;23614;33.774;130.514;2023-05-07T07:50:57;1;1;
37775;PMS5003;23614;33.774;130.514;2023-05-07T07:53:23;3;1;
37775;PMS5003;23614;33.774;130.514;2023-05-07T07:55:49;2;2;
37775;PMS5003;23614;33.774;130.514;2023-05-07T07:58:15;5;2;
37775;PMS5003;23614;33.774;130.514;2023-05-07T08:00:41;2;2;
37775;PMS5003;23614;33.774;130.514;2023-05-07T08:03:09;2;1;
37775;PMS5003;23614;33.774;130.514;2023-05-07T08:05:33;2;1;
37775;PMS5003;23614;33.774;130.514;2023-05-07T08:07:59;2;1;
37775;PMS5003;23614;33.774;130.514;2023-05-07T08:10:26;1;1;
37775;PMS5003;23614;33.774;130.514;2023-05-07T08:12:51;2;2;
37775;PMS5003;23614;33.774;130.514;2023-05-07T08:15:18;3;2;
37775;PMS5003;23614;33.774;130.514;2023-05-07T08:17:43;3;2;
37775;PMS5003;23614;33.774;130.514;2023-05-07T08:20:09;3;3;
37775;PMS5003;23614;33.774;130.514;2023-05-07T08:22:36;5;3;
37775;PMS5003;23614;33.774;130.514;2023-05-07T08:25:02;2;2;
37775;PMS5003;23614;33.774;130.514;2023-05-07T08:27:27;2;1;
37775;PMS5003;23614;33.774;130.514;2023-05-07T08:29:54;3;3;
37775;PMS5003;23614;33.774;130.514;2023-05-07T08:32:19;1;0;
37775;PMS5003;23614;33.774;130.514;2023-05-07T08:34:45;0;0;
37775;PMS5003;23614;33.774;130.514;2023-05-07T08:37:11;0;0;
37775;PMS5003;23614;33.774;130.514;2023-05-07T08:39:37;3;0;
37775;PMS5003;23614;33.774;130.514;2023-05-07T08:42:03;0;0;
37775;PMS5003;23614;33.774;130.514;2023-05-07T08:44:30;0;0;
37775;PMS5003;23614;33.774;130.514;2023-05-07T08:46:56;1;1;
37775;PMS5003;23614;33.774;130.514;2023-05-07T08:49:21;0;0;
37775;PMS5003;23614;33.774;130.514;2023-05-07T08:51:47;0;0;
37775;PMS5003;23614;33.774;130.514;2023-05-07T08:54:14;0;0;
37775;PMS5003;23614;33.774;130.514;2023-05-07T08:56:39;0;0;
37775;PMS5003;23614;33.774;130.514;2023-05-07T08:59:05;1;1;
37775;PMS5003;23614;33.774;130.514;2023-05-07T09:01:31;0;0;
37775;PMS5003;23614;33.774;130.514;2023-05-07T09:03:57;4;2;
37775;PMS5003;23614;33.774;130.514;2023-05-07T09:06:23;1;0;
37775;PMS5003;23614;33.774;130.514;2023-05-07T09:08:49;1;1;
37775;PMS5003;23614;33.774;130.514;2023-05-07T09:11:15;2;2;
37775;PMS5003;23614;33.774;130.514;2023-05-07T09:13:41;1;1;
37775;PMS5003;23614;33.774;130.514;2023-05-07T09:16:11;2;2;
37775;PMS5003;23614;33.774;130.514;2023-05-07T09:18:34;2;1;
37775;PMS5003;23614;33.774;130.514;2023-05-07T09:20:59;1;1;
37775;PMS5003;23614;33.774;130.514;2023-05-07T09:23:25;0;0;
37775;PMS5003;23614;33.774;130.514;2023-05-07T09:25:52;1;0;
37775;PMS5003;23614;33.774;130.514;2023-05-07T09:28:17;1;1;
37775;PMS5003;23614;33.774;130.514;2023-05-07T09:30:43;0;0;
37775;PMS5003;23614;33.774;130.514;2023-05-07T09:33:09;0;0;
37775;PMS5003;23614;33.774;130.514;2023-05-07T09:35:35;1;0;
37775;PMS5003;23614;33.774;130.514;2023-05-07T09:38:02;4;2;
37775;PMS5003;23614;33.774;130.514;2023-05-07T09:40:28;1;0;
37775;PMS5003;23614;33.774;130.514;2023-05-07T09:42:53;1;1;
37775;PMS5003;23614;33.774;130.514;2023-05-07T09:45:23;2;2;
37775;PMS5003;23614;33.774;130.514;2023-05-07T09:47:46;1;0;
37775;PMS5003;23614;33.774;130.514;2023-05-07T09:50:12;0;0;
37775;PMS5003;23614;33.774;130.514;2023-05-07T09:52:37;1;1;
37775;PMS5003;23614;33.774;130.514;2023-05-07T09:55:03;0;0;
37775;PMS5003;23614;33.774;130.514;2023-05-07T09:57:29;4;2;
37775;PMS5003;23614;33.774;130.514;2023-05-07T09:59:55;2;1;
37775;PMS5003;23614;33.774;130.514;2023-05-07T10:02:21;0;0;
37775;PMS5003;23614;33.774;130.514;2023-05-07T10:04:47;2;1;
37775;PMS5003;23614;33.774;130.514;2023-05-07T10:07:13;1;0;
37775;PMS5003;23614;33.774;130.514;2023-05-07T10:09:39;0;0;
37775;PMS5003;23614;33.774;130.514;2023-05-07T10:12:06;1;1;
37775;PMS5003;23614;33.774;130.514;2023-05-07T10:14:31;1;1;
37775;PMS5003;23614;33.774;130.514;2023-05-07T10:16:57;1;0;
37775;PMS5003;23614;33.774;130.514;2023-05-07T10:19:23;3;1;
37775;PMS5003;23614;33.774;130.514;2023-05-07T10:21:51;2;1;
37775;PMS5003;23614;33.774;130.514;2023-05-07T10:24:19;2;2;
37775;PMS5003;23614;33.774;130.514;2023-05-07T10:26:42;2;1;
37775;PMS5003;23614;33.774;130.514;2023-05-07T10:29:10;3;3;
37775;PMS5003;23614;33.774;130.514;2023-05-07T10:31:39;2;1;
37775;PMS5003;23614;33.774;130.514;2023-05-07T10:34:00;2;2;
37775;PMS5003;23614;33.774;130.514;2023-05-07T10:36:25;2;1;
37775;PMS5003;23614;33.774;130.514;2023-05-07T10:38:51;3;2;
37775;PMS5003;23614;33.774;130.514;2023-05-07T10:41:18;1;1;
37775;PMS5003;23614;33.774;130.514;2023-05-07T10:43:44;3;2;
37775;PMS5003;23614;33.774;130.514;2023-05-07T10:46:10;1;1;
37775;PMS5003;23614;33.774;130.514;2023-05-07T10:48:34;2;1;
37775;PMS5003;23614;33.774;130.514;2023-05-07T10:51:18;2;2;
37775;PMS5003;23614;33.774;130.514;2023-05-07T10:53:26;4;3;
37775;PMS5003;23614;33.774;130.514;2023-05-07T10:56:23;2;2;
37775;PMS5003;23614;33.774;130.514;2023-05-07T10:58:26;2;2;
37775;PMS5003;23614;33.774;130.514;2023-05-07T11:00:44;4;3;
37775;PMS5003;23614;33.774;130.514;2023-05-07T11:03:10;4;2;
37775;PMS5003;23614;33.774;130.514;2023-05-07T11:05:36;1;1;
37775;PMS5003;23614;33.774;130.514;2023-05-07T11:08:03;3;2;
37775;PMS5003;23614;33.774;130.514;2023-05-07T11:10:56;1;1;
37775;PMS5003;23614;33.774;130.514;2023-05-07T11:12:54;3;2;
37775;PMS5003;23614;33.774;130.514;2023-05-07T11:15:53;2;2;
37775;PMS5003;23614;33.774;130.514;2023-05-07T11:17:55;1;1;
37775;PMS5003;23614;33.774;130.514;2023-05-07T11:20:13;2;2;
37775;PMS5003;23614;33.774;130.514;2023-05-07T11:22:38;2;2;
37775;PMS5003;23614;33.774;130.514;2023-05-07T11:25:04;1;1;
37775;PMS5003;23614;33.774;130.514;2023-05-07T11:27:31;2;2;
37775;PMS5003;23614;33.774;130.514;2023-05-07T11:29:57;3;2;
37775;PMS5003;23614;33.774;130.514;2023-05-07T11:32:23;3;2;
37775;PMS5003;23614;33.774;130.514;2023-05-07T11:34:51;2;1;
37775;PMS5003;23614;33.774;130.514;2023-05-07T11:37:17;1;1;
37775;PMS5003;23614;33.774;130.514;2023-05-07T11:39:40;4;2;
37775;PMS5003;23614;33.774;130.514;2023-05-07T11:42:06;3;2;
37775;PMS5003;23614;33.774;130.514;2023-05-07T11:44:48;2;2;
37775;PMS5003;23614;33.774;130.514;2023-05-07T11:46:58;3;3;
37775;PMS5003;23614;33.774;130.514;2023-05-07T11:49:25;4;2;
37775;PMS5003;23614;33.774;130.514;2023-05-07T11:51:50;2;1;
37775;PMS5003;23614;33.774;130.514;2023-05-07T11:54:16;0;0;
37775;PMS5003;23614;33.774;130.514;2023-05-07T11:56:43;5;3;
37775;PMS5003;23614;33.774;130.514;2023-05-07T11:59:08;2;1;
37775;PMS5003;23614;33.774;130.514;2023-05-07T12:01:35;2;1;
37775;PMS5003;23614;33.774;130.514;2023-05-07T12:04:00;1;0;
37775;PMS5003;23614;33.774;130.514;2023-05-07T12:06:26;0;0;
37775;PMS5003;23614;33.774;130.514;2023-05-07T12:08:52;1;1;
37775;PMS5003;23614;33.774;130.514;2023-05-07T12:11:22;2;1;
37775;PMS5003;23614;33.774;130.514;2023-05-07T12:13:44;3;1;
37775;PMS5003;23614;33.774;130.514;2023-05-07T12:16:10;2;2;
37775;PMS5003;23614;33.774;130.514;2023-05-07T12:18:36;2;1;
37775;PMS5003;23614;33.774;130.514;2023-05-07T12:21:02;2;1;
37775;PMS5003;23614;33.774;130.514;2023-05-07T12:23:28;1;0;
37775;PMS5003;23614;33.774;130.514;2023-05-07T12:25:54;0;0;
37775;PMS5003;23614;33.774;130.514;2023-05-07T12:28:20;3;2;
37775;PMS5003;23614;33.774;130.514;2023-05-07T12:30:47;1;0;
37775;PMS5003;23614;33.774;130.514;2023-05-07T12:33:14;2;2;
37775;PMS5003;23614;33.774;130.514;2023-05-07T12:35:40;1;1;
37775;PMS5003;23614;33.774;130.514;2023-05-07T12:38:06;5;3;
37775;PMS5003;23614;33.774;130.514;2023-05-07T12:40:38;2;1;
37775;PMS5003;23614;33.774;130.514;2023-05-07T12:42:58;3;2;
37775;PMS5003;23614;33.774;130.514;2023-05-07T12:45:22;2;1;
37775;PMS5003;23614;33.774;130.514;2023-05-07T12:47:48;1;1;
37775;PMS5003;23614;33.774;130.514;2023-05-07T12:50:14;1;1;
37775;PMS5003;23614;33.774;130.514;2023-05-07T12:52:40;2;0;
37775;PMS5003;23614;33.774;130.514;2023-05-07T12:55:07;2;1;
37775;PMS5003;23614;33.774;130.514;2023-05-07T12:57:38;2;1;
37775;PMS5003;23614;33.774;130.514;2023-05-07T12:59:58;1;1;
37775;PMS5003;23614;33.774;130.514;2023-05-07T13:02:32;2;0;
37775;PMS5003;23614;33.774;130.514;2023-05-07T13:04:50;3;2;
37775;PMS5003;23614;33.774;130.514;2023-05-07T13:07:17;4;3;
37775;PMS5003;23614;33.774;130.514;2023-05-07T13:09:42;3;2;
37775;PMS5003;23614;33.774;130.514;2023-05-07T13:12:08;4;2;
37775;PMS5003;23614;33.774;130.514;2023-05-07T13:14:34;3;2;
37775;PMS5003;23614;33.774;130.514;2023-05-07T13:17:00;1;0;
37775;PMS5003;23614;33.774;130.514;2023-05-07T13:19:26;2;1;
37775;PMS5003;23614;33.774;130.514;2023-05-07T13:21:52;5;2;
37775;PMS5003;23614;33.774;130.514;2023-05-07T13:24:18;4;2;
37775;PMS5003;23614;33.774;130.514;2023-05-07T13:26:44;3;2;
37775;PMS5003;23614;33.774;130.514;2023-05-07T13:29:10;4;3;
37775;PMS5003;23614;33.774;130.514;2023-05-07T13:31:36;3;3;
37775;PMS5003;23614;33.774;130.514;2023-05-07T13:34:02;4;2;
37775;PMS5003;23614;33.774;130.514;2023-05-07T13:36:28;2;1;
37775;PMS5003;23614;33.774;130.514;2023-05-07T13:38:54;2;2;
37775;PMS5003;23614;33.774;130.514;2023-05-07T13:41:21;5;2;
37775;PMS5003;23614;33.774;130.514;2023-05-07T13:43:46;4;3;
37775;PMS5003;23614;33.774;130.514;2023-05-07T13:46:13;6;4;
37775;PMS5003;23614;33.774;130.514;2023-05-07T13:48:37;4;3;
37775;PMS5003;23614;33.774;130.514;2023-05-07T13:51:03;7;5;
37775;PMS5003;23614;33.774;130.514;2023-05-07T13:53:29;3;3;
37775;PMS5003;23614;33.774;130.514;2023-05-07T13:55:55;2;2;
37775;PMS5003;23614;33.774;130.514;2023-05-07T13:58:21;5;4;
37775;PMS5003;23614;33.774;130.514;2023-05-07T14:00:47;2;2;
37775;PMS5003;23614;33.774;130.514;2023-05-07T14:03:13;7;3;
37775;PMS5003;23614;33.774;130.514;2023-05-07T14:05:39;5;3;
37775;PMS5003;23614;33.774;130.514;2023-05-07T14:08:06;5;3;
37775;PMS5003;23614;33.774;130.514;2023-05-07T14:10:31;5;3;
37775;PMS5003;23614;33.774;130.514;2023-05-07T14:12:57;3;3;
37775;PMS5003;23614;33.774;130.514;2023-05-07T14:15:23;4;3;
37775;PMS5003;23614;33.774;130.514;2023-05-07T14:17:49;7;3;
37775;PMS5003;23614;33.774;130.514;2023-05-07T14:20:15;5;4;
37775;PMS5003;23614;33.774;130.514;2023-05-07T14:22:41;5;3;
37775;PMS5003;23614;33.774;130.514;2023-05-07T14:25:08;5;2;
37775;PMS5003;23614;33.774;130.514;2023-05-07T14:27:33;5;4;
37775;PMS5003;23614;33.774;130.514;2023-05-07T14:29:59;5;4;
37775;PMS5003;23614;33.774;130.514;2023-05-07T14:32:25;3;3;
37775;PMS5003;23614;33.774;130.514;2023-05-07T14:34:51;4;3;
37775;PMS5003;23614;33.774;130.514;2023-05-07T14:37:17;6;4;
37775;PMS5003;23614;33.774;130.514;2023-05-07T14:39:43;9;5;
37775;PMS5003;23614;33.774;130.514;2023-05-07T14:42:08;5;4;
37775;PMS5003;23614;33.774;130.514;2023-05-07T14:44:35;4;4;
37775;PMS5003;23614;33.774;130.514;2023-05-07T14:47:00;12;5;
37775;PMS5003;23614;33.774;130.514;2023-05-07T14:49:26;7;3;
37775;PMS5003;23614;33.774;130.514;2023-05-07T14:51:52;7;6;
37775;PMS5003;23614;33.774;130.514;2023-05-07T14:54:18;8;5;
37775;PMS5003;23614;33.774;130.514;2023-05-07T14:56:44;10;5;
37775;PMS5003;23614;33.774;130.514;2023-05-07T14:59:11;6;4;
37775;PMS5003;23614;33.774;130.514;2023-05-07T15:01:36;3;2;
37775;PMS5003;23614;33.774;130.514;2023-05-07T15:04:03;4;2;
37775;PMS5003;23614;33.774;130.514;2023-05-07T15:06:28;3;3;
37775;PMS5003;23614;33.774;130.514;2023-05-07T15:08:55;4;3;
37775;PMS5003;23614;33.774;130.514;2023-05-07T15:11:20;5;3;
37775;PMS5003;23614;33.774;130.514;2023-05-07T15:13:46;4;4;
37775;PMS5003;23614;33.774;130.514;2023-05-07T15:16:12;4;4;
37775;PMS5003;23614;33.774;130.514;2023-05-07T15:18:38;5;4;
37775;PMS5003;23614;33.774;130.514;2023-05-07T15:21:04;5;4;
37775;PMS5003;23614;33.774;130.514;2023-05-07T15:23:30;5;3;
37775;PMS5003;23614;33.774;130.514;2023-05-07T15:25:56;5;5;
37775;PMS5003;23614;33.774;130.514;2023-05-07T15:28:22;5;3;
37775;PMS5003;23614;33.774;130.514;2023-05-07T15:30:48;7;5;
37775;PMS5003;23614;33.774;130.514;2023-05-07T15:33:14;2;1;
37775;PMS5003;23614;33.774;130.514;2023-05-07T15:35:40;5;3;
37775;PMS5003;23614;33.774;130.514;2023-05-07T15:38:06;4;3;
37775;PMS5003;23614;33.774;130.514;2023-05-07T15:40:32;5;3;
37775;PMS5003;23614;33.774;130.514;2023-05-07T15:42:58;5;5;
37775;PMS5003;23614;33.774;130.514;2023-05-07T15:45:25;4;3;
37775;PMS5003;23614;33.774;130.514;2023-05-07T15:47:50;6;4;
37775;PMS5003;23614;33.774;130.514;2023-05-07T15:50:16;6;5;
37775;PMS5003;23614;33.774;130.514;2023-05-07T15:52:42;4;3;
37775;PMS5003;23614;33.774;130.514;2023-05-07T15:55:08;4;4;
37775;PMS5003;23614;33.774;130.514;2023-05-07T15:57:35;1;0;
37775;PMS5003;23614;33.774;130.514;2023-05-07T16:00:01;5;4;
37775;PMS5003;23614;33.774;130.514;2023-05-07T16:02:26;8;4;
37775;PMS5003;23614;33.774;130.514;2023-05-07T16:04:52;5;3;
37775;PMS5003;23614;33.774;130.514;2023-05-07T16:07:18;3;2;